Time;durP1;ratioP1;P1;durP2;ratioP2;P2;SDS_P1;SDS_P2;PMS_P1;PMS_P2;Temp;Humidity;BMP_temperature;BMP_pressure;BME280_temperature;BME280_humidity;BME280_pressure;Samples;Min_cycle;Max_cycle;Signal;HPM_P1;HPM_P2
2020/12/13 00:00:29;;;;;;;67.80;35.10;;;;;;;2.74;83.76;100308.88;5026364;28;20177;-76
2020/12/13 00:02:55;;;;;;;63.00;36.17;;;;;;;2.79;83.32;100305.63;5037000;28;20794;-75
2020/12/13 00:05:21;;;;;;;68.77;34.30;;;;;;;2.46;84.38;100307.91;5036484;28;20417;-74
2020/12/13 00:07:46;;;;;;;66.87;35.80;;;;;;;2.35;84.90;100313.56;5036528;28;20420;-73
2020/12/13 00:10:12;;;;;;;67.90;35.73;;;;;;;2.35;85.07;100310.09;5036404;28;20229;-73
2020/12/13 00:12:37;;;;;;;69.23;36.50;;;;;;;2.52;84.76;100308.13;5036548;28;20185;-74
2020/12/13 00:15:04;;;;;;;65.13;34.70;;;;;;;2.44;84.88;100309.56;5036476;28;20188;-74
2020/12/13 00:17:29;;;;;;;72.13;37.27;;;;;;;2.40;84.48;100302.56;5036809;28;20575;-73
2020/12/13 00:19:55;;;;;;;71.53;36.63;;;;;;;2.49;84.79;100310.56;5036187;28;20511;-73
2020/12/13 00:22:20;;;;;;;68.07;34.57;;;;;;;2.38;85.53;100307.59;5036117;28;20190;-74
2020/12/13 00:24:45;;;;;;;68.23;35.73;;;;;;;2.49;84.31;100313.13;5036165;28;20222;-73
2020/12/13 00:27:13;;;;;;;68.67;34.70;;;;;;;2.30;85.30;100319.31;5036397;28;20228;-75
2020/12/13 00:29:38;;;;;;;65.13;33.23;;;;;;;2.35;85.94;100326.41;5036466;28;20251;-76
2020/12/13 00:32:03;;;;;;;73.60;35.70;;;;;;;2.75;84.14;100331.19;5036192;28;20417;-74
2020/12/13 00:34:28;;;;;;;61.77;35.57;;;;;;;2.43;84.64;100341.25;5036336;28;20516;-75
2020/12/13 00:36:54;;;;;;;76.43;35.20;;;;;;;2.12;86.05;100333.25;5036750;28;20174;-76
2020/12/13 00:39:19;;;;;;;61.63;34.73;;;;;;;2.50;85.19;100325.19;5037635;28;20166;-74
2020/12/13 00:41:49;;;;;;;69.97;34.33;;;;;;;2.25;84.56;100329.47;5039804;28;20205;-77
2020/12/13 00:44:14;;;;;;;72.10;37.63;;;;;;;2.32;85.29;100341.72;5040030;28;20433;-77
2020/12/13 00:46:39;;;;;;;70.77;33.47;;;;;;;2.40;84.81;100342.00;5040007;28;20495;-79
2020/12/13 00:49:05;;;;;;;75.43;36.70;;;;;;;2.57;84.59;100352.03;5039565;28;20188;-78
2020/12/13 00:51:30;;;;;;;65.00;33.30;;;;;;;2.70;84.17;100344.78;5040142;28;20170;-77
2020/12/13 00:53:55;;;;;;;78.57;35.20;;;;;;;2.09;86.19;100360.56;5039547;28;20564;-79
2020/12/13 00:56:20;;;;;;;70.17;33.87;;;;;;;2.34;84.81;100360.66;5039535;28;20174;-77
2020/12/13 00:58:46;;;;;;;65.67;33.90;;;;;;;2.27;86.21;100361.25;5039824;28;20194;-72
2020/12/13 01:01:11;;;;;;;63.90;33.77;;;;;;;2.35;85.57;100357.28;5024403;28;20513;-75
2020/12/13 01:03:36;;;;;;;67.87;35.30;;;;;;;2.39;85.81;100353.09;5019438;28;20178;-75
2020/12/13 01:06:02;;;;;;;70.90;34.17;;;;;;;2.47;84.60;100359.41;5020016;28;20221;-79
2020/12/13 01:08:27;;;;;;;70.70;34.10;;;;;;;2.10;86.28;100367.47;5019513;28;20544;-76
2020/12/13 01:10:53;;;;;;;70.67;33.60;;;;;;;2.25;86.12;100357.75;5019375;28;20523;-73
2020/12/13 01:13:18;;;;;;;54.83;27.23;;;;;;;1.96;86.55;100366.94;5019316;28;20163;-73
2020/12/13 01:15:43;;;;;;;62.93;31.37;;;;;;;2.20;85.96;100364.41;5019593;28;20181;-73
2020/12/13 01:18:09;;;;;;;61.57;31.33;;;;;;;2.04;86.26;100357.81;5019006;28;20248;-72
2020/12/13 01:20:34;;;;;;;72.87;34.33;;;;;;;2.26;85.47;100361.19;5019675;28;20254;-80
2020/12/13 01:22:59;;;;;;;59.93;31.03;;;;;;;2.11;86.26;100358.91;5019327;28;20224;-77
2020/12/13 01:25:24;;;;;;;69.00;33.07;;;;;;;2.13;86.74;100360.72;5019138;28;20230;-78
2020/12/13 01:27:50;;;;;;;60.17;32.97;;;;;;;2.06;86.24;100357.88;5019662;28;20167;-77
2020/12/13 01:30:15;;;;;;;51.67;26.77;;;;;;;1.88;87.02;100368.31;5018978;28;20217;-79
2020/12/13 01:32:41;;;;;;;67.13;32.70;;;;;;;2.25;85.94;100368.03;5019367;28;20198;-75
2020/12/13 01:35:08;;;;;;;69.00;31.17;;;;;;;2.39;85.39;100372.81;5019466;28;20181;-76
2020/12/13 01:37:34;;;;;;;65.37;30.80;;;;;;;2.26;85.20;100374.03;5019196;28;20420;-75
2020/12/13 01:39:59;;;;;;;69.77;32.63;;;;;;;2.64;84.19;100375.47;5018919;28;20418;-73
2020/12/13 01:42:24;;;;;;;61.10;31.90;;;;;;;2.57;84.07;100373.50;5019445;28;20206;-77
2020/12/13 01:44:50;;;;;;;60.33;30.70;;;;;;;2.26;84.96;100371.47;5018908;28;20171;-76
2020/12/13 01:47:15;;;;;;;71.00;32.47;;;;;;;2.70;83.65;100369.66;5019051;28;20166;-77
2020/12/13 01:49:43;;;;;;;64.60;31.63;;;;;;;2.52;84.38;100369.88;5018821;28;20482;-76
2020/12/13 01:54:56;;;;;;;64.57;32.93;;;;;;;2.41;84.72;100361.78;5018876;28;20425;-74
2020/12/13 01:57:22;;;;;;;64.90;30.40;;;;;;;2.09;85.68;100374.28;5018597;28;20429;-75
2020/12/13 01:59:50;;;;;;;61.47;30.37;;;;;;;2.17;85.72;100378.03;5018115;28;20460;-78
2020/12/13 02:02:19;;;;;;;67.30;33.00;;;;;;;2.15;85.19;100382.25;5018154;28;20660;-75
2020/12/13 02:04:46;;;;;;;64.13;31.57;;;;;;;2.46;84.65;100378.25;5017766;28;20468;-75
2020/12/13 02:07:12;;;;;;;69.77;33.67;;;;;;;2.54;84.03;100383.66;5018502;28;20428;-75
2020/12/13 02:09:37;;;;;;;66.30;32.07;;;;;;;2.74;82.96;100378.38;5018040;28;20730;-74
2020/12/13 02:12:03;;;;;;;68.53;30.53;;;;;;;2.34;84.42;100385.50;5018730;28;20418;-77
2020/12/13 02:14:28;;;;;;;60.80;30.10;;;;;;;2.69;83.54;100389.38;5018707;28;20246;-75
2020/12/13 02:16:53;;;;;;;64.00;32.00;;;;;;;2.47;83.50;100389.41;5022291;28;20182;-80
2020/12/13 02:19:19;;;;;;;60.93;31.50;;;;;;;2.55;83.33;100388.00;5019120;28;20584;-80
2020/12/13 02:21:49;;;;;;;48.83;28.67;;;;;;;2.12;84.44;100394.13;5017804;28;20258;-80
2020/12/13 02:24:15;;;;;;;62.07;30.80;;;;;;;2.52;84.03;100390.47;5018001;28;20222;-83
2020/12/13 02:26:42;;;;;;;60.10;31.20;;;;;;;2.52;83.38;100387.88;5018306;28;20764;-78
2020/12/13 02:29:07;;;;;;;56.43;30.27;;;;;;;2.63;83.34;100391.72;5018242;28;20265;-77
2020/12/13 02:31:33;;;;;;;63.10;31.23;;;;;;;2.61;82.84;100389.91;5018158;28;20691;-80
2020/12/13 02:33:59;;;;;;;59.57;30.37;;;;;;;2.07;85.40;100395.63;5032126;28;20177;-81
2020/12/13 02:36:24;;;;;;;55.23;30.90;;;;;;;2.24;84.59;100399.72;5038317;28;20629;-75
2020/12/13 02:38:49;;;;;;;56.97;29.07;;;;;;;2.23;85.62;100403.09;5037346;28;20182;-79
2020/12/13 02:41:14;;;;;;;52.90;29.43;;;;;;;2.47;84.17;100402.28;5037968;28;20182;-78
2020/12/13 02:43:40;;;;;;;52.90;28.40;;;;;;;2.28;84.12;100411.00;5038519;28;20193;-81
2020/12/13 02:46:05;;;;;;;59.83;29.80;;;;;;;2.45;84.19;100404.81;5037845;28;20209;-82
2020/12/13 02:48:30;;;;;;;55.70;29.07;;;;;;;2.67;83.45;100405.59;5037586;28;20174;-81
2020/12/13 02:50:56;;;;;;;57.47;30.30;;;;;;;2.69;83.26;100407.41;5021020;28;20209;-83
2020/12/13 02:53:21;;;;;;;59.20;29.20;;;;;;;2.78;82.24;100409.41;5036918;28;20174;-83
2020/12/13 02:55:46;;;;;;;58.77;29.83;;;;;;;2.74;82.48;100414.41;5038207;28;20189;-74
2020/12/13 02:58:12;;;;;;;62.80;30.30;;;;;;;2.61;83.06;100413.97;5037519;28;20629;-77
2020/12/13 03:00:37;;;;;;;58.40;29.57;;;;;;;2.69;82.46;100420.25;5037136;28;20181;-74
2020/12/13 03:03:02;;;;;;;56.70;30.47;;;;;;;2.75;82.75;100429.00;5036778;28;20228;-79
2020/12/13 03:05:28;;;;;;;49.37;27.20;;;;;;;2.69;82.43;100430.56;5037647;28;20177;-77
2020/12/13 03:07:53;;;;;;;55.23;31.40;;;;;;;2.85;82.27;100428.53;5037145;28;20288;-77
2020/12/13 03:10:18;;;;;;;63.40;31.73;;;;;;;2.70;82.57;100436.56;5037248;28;20198;-81
2020/12/13 03:12:43;;;;;;;54.00;27.40;;;;;;;2.47;83.12;100436.59;5037045;28;20291;-75
2020/12/13 03:15:09;;;;;;;62.07;29.73;;;;;;;2.51;83.10;100442.75;5037691;28;20174;-81
2020/12/13 03:17:34;;;;;;;52.10;28.40;;;;;;;2.24;83.53;100440.88;5037331;28;20174;-80
2020/12/13 03:19:59;;;;;;;57.13;28.80;;;;;;;2.17;84.92;100431.16;5037888;28;20193;-82
2020/12/13 03:22:25;;;;;;;57.60;27.53;;;;;;;2.35;83.39;100443.84;5037197;28;20170;-79
2020/12/13 03:24:50;;;;;;;53.13;28.43;;;;;;;2.60;83.70;100432.78;5037115;28;20622;-78
2020/12/13 03:27:15;;;;;;;57.30;30.57;;;;;;;2.63;82.73;100424.31;5037740;28;20179;-75
2020/12/13 03:29:44;;;;;;;57.80;29.47;;;;;;;2.52;83.20;100436.78;5036760;28;20199;-77
2020/12/13 03:32:10;;;;;;;59.67;28.57;;;;;;;2.92;81.77;100437.34;5036723;28;20170;-77
2020/12/13 03:34:35;;;;;;;55.27;28.93;;;;;;;2.66;83.44;100439.84;5037242;28;20412;-75
2020/12/13 03:37:01;;;;;;;49.97;28.13;;;;;;;2.48;83.27;100438.34;5036916;28;20178;-78
2020/12/13 03:39:26;;;;;;;50.90;28.37;;;;;;;2.56;83.75;100437.75;5037223;28;20202;-74
2020/12/13 03:41:51;;;;;;;57.40;27.60;;;;;;;2.36;83.61;100446.47;5037346;28;20170;-76
2020/12/13 03:44:16;;;;;;;52.77;28.13;;;;;;;2.54;83.24;100460.84;5036813;28;20182;-80
2020/12/13 03:46:42;;;;;;;56.60;29.73;;;;;;;2.10;84.44;100449.75;5037319;28;20220;-78
2020/12/13 03:49:07;;;;;;;57.03;27.83;;;;;;;2.52;82.77;100452.22;5037123;28;20177;-78
2020/12/13 03:51:33;;;;;;;58.63;30.13;;;;;;;2.26;84.40;100449.53;5036997;28;20233;-76
2020/12/13 03:53:58;;;;;;;55.73;29.00;;;;;;;2.33;84.10;100455.78;5036345;28;20209;-78
2020/12/13 03:56:23;;;;;;;47.47;27.07;;;;;;;2.23;83.71;100451.97;5030854;28;20261;-78
2020/12/13 03:58:48;;;;;;;55.17;28.50;;;;;;;2.59;83.23;100449.03;5025412;28;20256;-77
2020/12/13 04:01:14;;;;;;;55.50;27.83;;;;;;;2.22;84.67;100464.78;5029301;28;20596;-75
2020/12/13 04:03:39;;;;;;;56.53;27.03;;;;;;;2.45;83.23;100466.53;5036995;28;20174;-78
2020/12/13 04:06:04;;;;;;;54.80;29.50;;;;;;;2.66;82.27;100463.88;5019532;28;20261;-71
2020/12/13 04:08:30;;;;;;;54.30;29.43;;;;;;;2.66;82.18;100461.31;5016721;28;20245;-73
2020/12/13 04:10:55;;;;;;;53.40;28.00;;;;;;;2.38;83.54;100474.81;5017255;28;20207;-77
2020/12/13 04:13:20;;;;;;;45.67;27.40;;;;;;;2.22;83.64;100472.47;5023680;28;20197;-77
2020/12/13 04:15:45;;;;;;;50.40;28.27;;;;;;;2.21;84.73;100474.19;5040557;28;20179;-76
2020/12/13 04:18:11;;;;;;;50.47;27.33;;;;;;;2.33;84.17;100476.38;5040600;28;20467;-76
2020/12/13 04:20:36;;;;;;;57.43;29.90;;;;;;;2.32;83.40;100480.63;5040059;28;20193;-75
2020/12/13 04:23:01;;;;;;;52.03;28.43;;;;;;;2.22;84.13;100488.81;5040247;28;20174;-74
2020/12/13 04:25:27;;;;;;;56.47;29.10;;;;;;;2.27;83.75;100487.28;5040296;28;20230;-77
2020/12/13 04:27:52;;;;;;;54.27;27.80;;;;;;;1.94;85.07;100491.97;5040618;28;20586;-78
2020/12/13 04:30:17;;;;;;;50.80;28.00;;;;;;;2.15;84.64;100487.69;5034359;28;20579;-76
2020/12/13 04:32:43;;;;;;;54.40;29.17;;;;;;;2.30;84.13;100492.56;5020367;28;20189;-77
2020/12/13 04:35:08;;;;;;;58.03;27.20;;;;;;;2.18;85.86;100486.94;5020299;28;20190;-78
2020/12/13 04:37:34;;;;;;;55.53;27.87;;;;;;;1.99;85.02;100493.91;5020751;28;20237;-77
2020/12/13 04:40:00;;;;;;;61.50;27.97;;;;;;;2.18;83.64;100485.22;5019856;28;20443;-78
2020/12/13 04:42:26;;;;;;;57.47;29.10;;;;;;;2.27;83.76;100496.69;5020456;28;20476;-81
2020/12/13 04:44:52;;;;;;;52.80;28.40;;;;;;;2.28;84.12;100498.47;5021541;28;20422;-79
2020/12/13 04:47:18;;;;;;;57.93;26.40;;;;;;;2.05;85.37;100497.56;5020443;28;20422;-79
2020/12/13 04:49:48;;;;;;;60.10;31.20;;;;;;;2.29;84.50;100503.66;5020476;28;20210;-82
2020/12/13 04:52:14;;;;;;;59.50;29.53;;;;;;;2.21;85.26;100506.75;5020412;28;20460;-79
2020/12/13 04:54:47;;;;;;;53.93;28.70;;;;;;;2.36;84.11;100508.22;5020409;28;20528;-82
2020/12/13 04:57:12;;;;;;;61.17;30.53;;;;;;;2.55;83.90;100506.38;5020101;28;20584;-79
2020/12/13 04:59:39;;;;;;;55.70;29.27;;;;;;;2.52;83.24;100511.41;5020803;28;20460;-77
2020/12/13 05:02:04;;;;;;;55.00;29.53;;;;;;;2.60;83.81;100511.69;5020287;28;20199;-81
2020/12/13 05:04:30;;;;;;;62.80;29.03;;;;;;;2.60;83.08;100512.56;5026358;28;20749;-81
2020/12/13 05:06:55;;;;;;;50.67;26.90;;;;;;;2.41;83.28;100517.81;5040131;28;20171;-79
2020/12/13 05:09:20;;;;;;;54.90;28.90;;;;;;;2.70;82.96;100519.81;5038928;28;20181;-82
2020/12/13 05:11:46;;;;;;;56.20;31.50;;;;;;;2.61;83.89;100522.06;5040199;28;20466;-83
2020/12/13 05:14:12;;;;;;;58.40;29.23;;;;;;;2.43;84.24;100518.75;5039221;28;20225;-79
2020/12/13 05:16:37;;;;;;;57.60;29.17;;;;;;;2.52;84.58;100522.56;5039517;28;20217;-78
2020/12/13 05:19:07;;;;;;;61.27;30.90;;;;;;;2.20;85.00;100521.28;5038354;28;20449;-80
2020/12/13 05:21:33;;;;;;;55.43;29.07;;;;;;;2.23;85.09;100531.69;5039630;28;20217;-78
2020/12/13 05:24:00;;;;;;;51.90;28.67;;;;;;;2.45;84.53;100515.44;5038945;28;20869;-79
2020/12/13 05:26:26;;;;;;;54.67;29.50;;;;;;;2.20;85.09;100531.59;5022676;28;20437;-74
2020/12/13 05:28:53;;;;;;;59.00;30.13;;;;;;;2.20;86.09;100529.00;5019392;28;20480;-74
2020/12/13 05:31:24;;;;;;;55.87;30.30;;;;;;;2.22;85.43;100535.09;5018563;28;20198;-82
2020/12/13 05:33:53;;;;;;;52.60;28.67;;;;;;;2.18;85.88;100530.66;5018973;28;20425;-75
2020/12/13 05:36:18;;;;;;;56.80;30.70;;;;;;;2.34;85.50;100526.97;5018884;28;20508;-73
2020/12/13 05:38:45;;;;;;;57.40;29.57;;;;;;;1.99;87.11;100535.06;5018758;28;20418;-75
2020/12/13 05:41:15;;;;;;;54.13;29.37;;;;;;;2.32;86.24;100533.78;5019202;28;20250;-86
2020/12/13 05:43:53;;;;;;;28.77;17.47;;;;;;;8.77;86.63;100518.09;5017995;28;20677;-75
2020/12/13 05:51:49;;;;;;;62.50;30.23;;;;;;;2.66;84.45;100528.22;5017440;28;20731;-78
2020/12/13 05:54:20;;;;;;;56.73;30.30;;;;;;;2.96;84.09;100527.63;5017709;28;20215;-78
2020/12/13 05:56:52;;;;;;;50.27;30.00;;;;;;;2.55;84.56;100534.66;5018060;28;20509;-79
2020/12/13 05:59:17;;;;;;;55.93;28.20;;;;;;;2.58;84.41;100532.22;5018136;28;20497;-78
2020/12/13 06:01:46;;;;;;;52.37;29.47;;;;;;;2.22;86.11;100535.09;5018822;28;20434;-78
2020/12/13 06:04:14;;;;;;;53.03;27.80;;;;;;;2.39;85.62;100545.19;5018915;28;20182;-77
2020/12/13 06:06:44;;;;;;;51.83;26.63;;;;;;;2.09;86.56;100549.16;5018534;28;20712;-77
2020/12/13 06:09:13;;;;;;;55.87;27.47;;;;;;;2.60;85.23;100545.13;5018501;28;20786;-79
2020/12/13 06:11:42;;;;;;;46.10;25.67;;;;;;;2.64;85.81;100555.63;5001599;28;21067;-78
2020/12/13 06:14:13;;;;;;;55.00;30.07;;;;;;;2.56;85.12;100546.72;5018649;28;20709;-79
2020/12/13 06:16:39;;;;;;;50.37;26.00;;;;;;;2.15;86.16;100551.09;5019022;28;20846;-78
2020/12/13 06:19:05;;;;;;;54.53;27.63;;;;;;;2.11;86.28;100562.06;5018422;28;20464;-78
2020/12/13 06:21:31;;;;;;;51.83;29.23;;;;;;;2.31;86.35;100561.22;5018542;28;20445;-78
2020/12/13 06:23:58;;;;;;;55.50;29.67;;;;;;;2.23;85.93;100561.69;5018551;28;20478;-79
2020/12/13 06:26:24;;;;;;;54.13;29.00;;;;;;;2.25;86.32;100567.78;5017482;28;20418;-79
2020/12/13 06:28:51;;;;;;;46.90;25.50;;;;;;;1.71;87.44;100570.69;5018538;28;20732;-80
2020/12/13 06:31:16;;;;;;;52.00;28.00;;;;;;;2.07;87.27;100557.63;5018547;28;20480;-78
2020/12/13 06:33:42;;;;;;;62.33;28.93;;;;;;;2.29;87.06;100561.97;5018203;28;20522;-79
2020/12/13 06:36:08;;;;;;;58.47;28.20;;;;;;;1.84;87.32;100571.28;5017850;28;20610;-79
2020/12/13 06:38:34;;;;;;;54.10;28.97;;;;;;;1.96;87.96;100565.78;5018194;28;20426;-78
2020/12/13 06:41:10;;;;;;;66.13;30.50;;;;;;;2.02;88.10;100573.72;5018391;28;20205;-79
2020/12/13 06:43:54;;;;;;;59.73;30.27;;;;;;;2.02;87.43;100566.03;5018234;28;20520;-78
2020/12/13 06:46:19;;;;;;;58.70;31.33;;;;;;;2.49;86.16;100570.44;5018020;28;20418;-79
2020/12/13 06:48:45;;;;;;;60.97;32.00;;;;;;;2.28;87.45;100571.34;5018207;28;20425;-79
2020/12/13 06:51:16;;;;;;;65.10;32.30;;;;;;;2.38;86.12;100572.59;5017974;28;20207;-78
2020/12/13 06:53:42;;;;;;;61.03;30.50;;;;;;;2.28;86.37;100566.19;5018034;28;20167;-78
2020/12/13 06:56:09;;;;;;;64.77;30.10;;;;;;;2.00;86.24;100567.66;5018112;28;20476;-78
2020/12/13 06:58:43;;;;;;;62.43;31.90;;;;;;;1.97;87.45;100572.66;5017058;28;20973;-78
2020/12/13 07:01:19;;;;;;;67.07;33.20;;;;;;;1.93;88.19;100587.91;5018065;28;20825;-78
2020/12/13 07:03:45;;;;;;;61.37;28.80;;;;;;;1.85;87.88;100578.19;5017325;28;20686;-79
2020/12/13 07:06:18;;;;;;;64.70;32.20;;;;;;;2.25;87.86;100585.81;5017645;28;20460;-79
2020/12/13 07:08:53;;;;;;;60.30;29.60;;;;;;;1.96;87.43;100586.34;5017513;28;20505;-77
2020/12/13 07:11:21;;;;;;;72.37;33.27;;;;;;;2.39;86.45;100588.91;5017566;28;20476;-79
2020/12/13 07:13:47;;;;;;;64.40;31.47;;;;;;;2.36;86.05;100585.41;5017533;28;20429;-79
2020/12/13 07:16:34;;;;;;;65.33;33.20;;;;;;;2.48;86.56;100589.28;5017662;28;20452;-78
2020/12/13 07:19:07;;;;;;;67.63;33.30;;;;;;;2.31;86.95;100597.22;5017519;28;20425;-78
2020/12/13 07:21:33;;;;;;;66.97;32.17;;;;;;;2.46;86.66;100596.06;5000377;28;20437;-78
2020/12/13 07:24:00;;;;;;;63.00;29.90;;;;;;;1.89;87.18;100592.03;5017449;28;20466;-77
2020/12/13 07:26:26;;;;;;;66.23;32.93;;;;;;;2.22;86.92;100594.25;5017351;28;20263;-77
2020/12/13 07:28:52;;;;;;;65.97;31.00;;;;;;;2.46;86.65;100596.06;5017454;28;20501;-78
2020/12/13 07:31:19;;;;;;;60.33;30.70;;;;;;;2.16;86.63;100597.44;5017553;28;20548;-77
2020/12/13 07:33:45;;;;;;;66.57;30.83;;;;;;;2.20;86.67;100598.44;5017585;28;20697;-79
2020/12/13 07:36:11;;;;;;;66.53;33.57;;;;;;;2.51;86.71;100603.13;5017418;28;20418;-78
2020/12/13 07:38:40;;;;;;;62.80;32.47;;;;;;;1.91;87.43;100612.66;5018121;28;20406;-78
2020/12/13 07:41:19;;;;;;;67.27;32.10;;;;;;;1.99;87.43;100622.47;5017651;28;20216;-78
2020/12/13 07:43:56;;;;;;;69.83;32.77;;;;;;;2.36;87.73;100616.25;5017664;28;20413;-77
2020/12/13 07:46:21;;;;;;;66.50;33.17;;;;;;;2.01;87.51;100614.81;5017341;28;20474;-78
2020/12/13 07:48:47;;;;;;;76.70;32.73;;;;;;;1.99;86.63;100614.75;5020119;28;20418;-78
2020/12/13 07:51:13;;;;;;;66.10;33.30;;;;;;;2.10;87.87;100612.63;5021353;28;20531;-77
2020/12/13 07:53:38;;;;;;;75.83;35.27;;;;;;;2.46;86.42;100606.34;5021204;28;20174;-79
2020/12/13 07:56:03;;;;;;;73.40;34.27;;;;;;;2.30;86.07;100617.72;5021883;28;20512;-79
2020/12/13 07:58:29;;;;;;;75.53;34.63;;;;;;;2.44;86.29;100620.88;5021045;28;20213;-79
2020/12/13 08:01:08;;;;;;;76.27;33.03;;;;;;;2.43;85.97;100621.69;5021336;28;20197;-78
2020/12/13 08:03:44;;;;;;;76.00;35.27;;;;;;;2.60;86.29;100630.97;5021376;28;20179;-77
2020/12/13 08:06:10;;;;;;;73.47;33.43;;;;;;;2.52;86.38;100634.91;5021192;28;20425;-79
2020/12/13 08:08:43;;;;;;;64.97;33.03;;;;;;;2.36;85.91;100642.00;5020915;28;20520;-78
2020/12/13 08:11:12;;;;;;;77.33;33.13;;;;;;;2.30;85.65;100649.47;5021280;28;20221;-78
2020/12/13 08:13:52;;;;;;;71.97;34.30;;;;;;;2.52;85.60;100646.06;5021210;28;20413;-79
2020/12/13 08:16:18;;;;;;;67.23;31.97;;;;;;;2.65;85.09;100660.34;5021280;28;20467;-78
2020/12/13 08:18:47;;;;;;;61.80;30.57;;;;;;;2.78;84.50;100653.09;5020720;28;20923;-79
2020/12/13 08:21:18;;;;;;;61.80;30.83;;;;;;;2.93;84.30;100648.53;5003956;28;20191;-79
2020/12/13 08:23:51;;;;;;;61.57;32.77;;;;;;;2.75;84.21;100656.44;5020063;28;20468;-80
2020/12/13 08:26:16;;;;;;;56.77;30.90;;;;;;;2.57;84.85;100653.09;5020106;28;20429;-79
2020/12/13 08:28:43;;;;;;;59.47;29.50;;;;;;;2.30;85.69;100656.28;5020332;28;20422;-79
2020/12/13 08:31:13;;;;;;;54.33;28.63;;;;;;;2.46;85.42;100652.66;5020187;28;20202;-80
2020/12/13 08:33:43;;;;;;;59.63;30.33;;;;;;;2.50;85.49;100658.03;5021343;28;20418;-79
2020/12/13 08:36:19;;;;;;;57.33;29.17;;;;;;;2.34;86.21;100658.19;5020335;28;20448;-78
2020/12/13 08:38:44;;;;;;;58.37;28.73;;;;;;;2.29;85.41;100654.56;5020558;28;20421;-79
2020/12/13 08:41:12;;;;;;;58.00;29.47;;;;;;;2.55;84.90;100667.63;5020216;28;20834;-78
2020/12/13 08:43:43;;;;;;;67.50;31.13;;;;;;;2.63;84.83;100667.09;5020748;28;20177;-79
2020/12/13 08:46:29;;;;;;;65.20;32.67;;;;;;;2.86;84.74;100677.44;5021035;28;20471;-80
2020/12/13 08:48:54;;;;;;;67.70;32.90;;;;;;;3.02;83.74;100674.66;5019962;28;20422;-77
2020/12/13 08:51:25;;;;;;;66.63;31.87;;;;;;;3.13;84.38;100679.38;5020813;28;20522;-80
2020/12/13 08:53:58;;;;;;;59.90;33.27;;;;;;;2.98;83.70;100682.22;5020755;28;20175;-81
2020/12/13 08:56:32;;;;;;;59.60;32.33;;;;;;;2.97;84.63;100680.44;5020308;28;20418;-79
2020/12/13 08:58:58;;;;;;;58.13;31.80;;;;;;;3.17;83.48;100688.97;5019891;28;20410;-79
2020/12/13 09:01:27;;;;;;;69.00;33.87;;;;;;;3.10;84.45;100684.38;5018592;28;20701;-81
2020/12/13 09:03:53;;;;;;;68.70;33.33;;;;;;;2.88;83.77;100690.38;5020494;28;20217;-79
2020/12/13 09:06:26;;;;;;;68.00;33.37;;;;;;;2.53;85.01;100694.16;5020073;28;20445;-79
2020/12/13 09:08:52;;;;;;;62.07;32.73;;;;;;;2.75;84.99;100691.56;5020860;28;20432;-79
2020/12/13 09:11:31;;;;;;;65.23;34.27;;;;;;;2.96;83.61;100692.44;5019782;28;20465;-79
2020/12/13 09:13:56;;;;;;;74.17;34.60;;;;;;;3.13;83.07;100694.81;5020202;28;20179;-80
2020/12/13 09:16:28;;;;;;;67.70;34.30;;;;;;;3.19;83.70;100695.03;5019802;28;20429;-79
2020/12/13 09:19:02;;;;;;;63.40;33.57;;;;;;;3.16;84.15;100700.09;5019118;28;20187;-78
2020/12/13 09:21:43;;;;;;;74.70;34.73;;;;;;;2.77;85.43;100703.69;5019545;28;20734;-80
2020/12/13 09:24:09;;;;;;;68.20;33.13;;;;;;;2.65;85.14;100698.03;5019813;28;20572;-78
2020/12/13 09:26:34;;;;;;;67.93;33.03;;;;;;;2.82;85.22;100704.75;5019744;28;20540;-79
2020/12/13 09:28:59;;;;;;;73.47;35.80;;;;;;;2.93;85.46;100707.78;5019750;28;20226;-79
2020/12/13 09:31:24;;;;;;;68.70;33.87;;;;;;;2.98;84.50;100706.25;5019967;28;20289;-78
2020/12/13 09:33:50;;;;;;;71.57;33.67;;;;;;;3.14;83.63;100718.06;5019979;28;20560;-78
2020/12/13 09:36:15;;;;;;;65.37;34.47;;;;;;;2.99;84.07;100718.31;5019464;28;20175;-78
2020/12/13 09:38:40;;;;;;;69.47;33.40;;;;;;;3.22;83.85;100718.38;5019768;28;20178;-79
2020/12/13 09:41:06;;;;;;;76.50;36.83;;;;;;;3.47;82.45;100734.78;5019368;28;20234;-79
2020/12/13 09:43:31;;;;;;;71.23;35.07;;;;;;;3.12;83.33;100724.81;5019682;28;20435;-78
2020/12/13 09:45:56;;;;;;;69.53;34.70;;;;;;;3.27;83.09;100719.41;5019801;28;20493;-79
2020/12/13 09:48:22;;;;;;;76.43;34.20;;;;;;;3.39;83.84;100725.88;5019142;28;20253;-80
2020/12/13 09:50:47;;;;;;;61.47;29.43;;;;;;;2.88;83.27;100726.44;5019151;28;20631;-77
2020/12/13 09:53:12;;;;;;;70.40;32.60;;;;;;;3.28;83.53;100733.19;5019589;28;20179;-79
2020/12/13 09:55:37;;;;;;;69.53;33.00;;;;;;;3.36;82.46;100729.19;5019146;28;20182;-78
2020/12/13 09:58:03;;;;;;;66.20;33.10;;;;;;;3.42;83.20;100724.25;5018286;28;20223;-78
2020/12/13 10:00:28;;;;;;;62.53;31.97;;;;;;;3.41;82.62;100729.38;5019394;28;20167;-78
2020/12/13 10:02:54;;;;;;;61.80;33.37;;;;;;;3.49;82.60;100727.94;5019172;28;20548;-79
2020/12/13 10:05:34;;;;;;;69.33;32.67;;;;;;;3.65;82.09;100727.75;5019143;28;20179;-79
2020/12/13 10:10:43;;;;;;;61.40;32.47;;;;;;;3.47;82.60;100737.34;5018952;28;20527;-78
2020/12/13 10:13:08;;;;;;;77.53;37.00;;;;;;;3.17;84.32;100733.63;5023808;28;20696;-78
2020/12/13 10:15:34;;;;;;;68.40;33.80;;;;;;;3.29;83.92;100733.22;5018190;28;20213;-78
2020/12/13 10:17:59;;;;;;;72.07;31.83;;;;;;;3.30;83.77;100737.56;5019388;28;20171;-77
2020/12/13 10:20:24;;;;;;;70.40;34.50;;;;;;;3.46;83.14;100733.00;5018916;28;20541;-78
2020/12/13 10:22:49;;;;;;;71.13;32.97;;;;;;;3.32;83.58;100733.34;5018873;28;20225;-77
2020/12/13 10:25:15;;;;;;;74.23;34.97;;;;;;;3.34;83.58;100743.72;5018627;28;20313;-79
2020/12/13 10:27:40;;;;;;;63.13;32.27;;;;;;;3.28;83.54;100731.47;5017924;28;20237;-79
2020/12/13 10:30:06;;;;;;;71.73;34.40;;;;;;;3.41;83.51;100732.84;5018595;28;20222;-77
2020/12/13 10:32:31;;;;;;;75.77;35.47;;;;;;;3.10;83.76;100735.88;5018615;28;20179;-78
2020/12/13 10:34:56;;;;;;;69.17;33.00;;;;;;;2.79;85.30;100735.53;5028887;28;20190;-84
2020/12/13 10:37:22;;;;;;;83.50;36.50;;;;;;;3.26;84.05;100727.97;5039200;28;20181;-78
2020/12/13 10:39:47;;;;;;;71.00;33.53;;;;;;;3.31;84.89;100731.56;5037976;28;20559;-79
2020/12/13 10:42:12;;;;;;;78.67;37.00;;;;;;;3.52;84.09;100734.13;5037977;28;20174;-78
2020/12/13 10:44:38;;;;;;;68.00;36.60;;;;;;;3.34;83.40;100731.72;5038179;28;20189;-79
2020/12/13 10:47:03;;;;;;;77.33;35.90;;;;;;;3.33;84.56;100731.66;5038077;28;20212;-79
2020/12/13 10:49:28;;;;;;;71.67;31.77;;;;;;;3.42;84.13;100726.84;5037524;28;20482;-77
2020/12/13 10:51:54;;;;;;;76.23;34.43;;;;;;;3.29;83.85;100727.19;5034642;28;20174;-80
2020/12/13 10:54:19;;;;;;;73.63;34.27;;;;;;;3.34;84.01;100730.81;5029794;28;20219;-84
2020/12/13 10:56:44;;;;;;;70.63;34.40;;;;;;;3.51;85.09;100723.75;5037004;28;20285;-81
2020/12/13 10:59:13;;;;;;;70.60;34.87;;;;;;;3.51;84.14;100718.59;5039161;28;20166;-76
2020/12/13 11:01:38;;;;;;;74.53;36.27;;;;;;;3.71;83.29;100720.22;5037400;28;20424;-76
2020/12/13 11:04:03;;;;;;;73.27;33.63;;;;;;;3.44;83.54;100716.63;5037539;28;20436;-78
2020/12/13 11:06:30;;;;;;;70.37;35.17;;;;;;;3.49;83.46;100726.28;5036716;28;20250;-78
2020/12/13 11:08:55;;;;;;;70.13;33.83;;;;;;;3.87;83.80;100720.78;5037649;28;20217;-77
2020/12/13 11:11:21;;;;;;;66.60;33.50;;;;;;;3.71;82.60;100727.94;5037242;28;20495;-78
2020/12/13 11:13:47;;;;;;;69.87;33.27;;;;;;;3.60;83.10;100726.69;5038405;28;20256;-81
2020/12/13 11:16:12;;;;;;;80.37;33.97;;;;;;;3.98;81.89;100726.34;5037212;28;20523;-79
2020/12/13 11:18:39;;;;;;;65.90;30.57;;;;;;;2.86;84.98;100723.78;5037366;28;20228;-78
2020/12/13 11:21:04;;;;;;;69.60;34.47;;;;;;;3.39;85.08;100728.44;5037520;28;20546;-79
2020/12/13 11:23:29;;;;;;;90.10;40.10;;;;;;;3.50;83.89;100722.00;5036907;28;20425;-80
2020/12/13 11:25:55;;;;;;;86.97;37.17;;;;;;;3.48;83.83;100724.50;5029413;28;20190;-78